Time;durP1;ratioP1;P1;durP2;ratioP2;P2;SDS_P1;SDS_P2;PMS_P1;PMS_P2;Temp;Humidity;BMP_temperature;BMP_pressure;BME280_temperature;BME280_humidity;BME280_pressure;Samples;Min_cycle;Max_cycle;Signal;HPM_P1;HPM_P2
2023/07/27 00:00:05;;;;;;;3.28;1.58;;;;;;;;;;4956831;28;20023;-76
2023/07/27 00:02:31;;;;;;;3.42;1.55;;;;;;;;;;4973671;28;20495;-76
2023/07/27 00:04:57;;;;;;;4.22;1.75;;;;;;;;;;4972008;28;20045;-76
2023/07/27 00:07:25;;;;;;;3.88;1.67;;;;;;;;;;4955510;28;20074;-77
2023/07/27 00:09:51;;;;;;;4.43;1.92;;;;;;;;;;4956031;28;20035;-77
2023/07/27 00:12:16;;;;;;;3.30;1.50;;;;;;;;;;4972342;28;20037;-77
2023/07/27 00:14:44;;;;;;;7.25;1.80;;;;;;;;;;4972822;28;20030;-76
2023/07/27 00:17:10;;;;;;;3.20;1.88;;;;;;;;;;4972788;28;20019;-76
2023/07/27 00:19:35;;;;;;;3.33;1.90;;;;;;;;;;4972891;28;20417;-78
2023/07/27 00:22:03;;;;;;;5.22;1.88;;;;;;;;;;4972787;28;20042;-77
2023/07/27 00:24:29;;;;;;;3.17;1.63;;;;;;;;;;4956618;28;20030;-76
2023/07/27 00:26:54;;;;;;;4.82;1.90;;;;;;;;;;4974423;28;20500;-76
2023/07/27 00:29:20;;;;;;;3.63;1.85;;;;;;;;;;4959279;28;20541;-76
2023/07/27 00:31:46;;;;;;;4.70;1.80;;;;;;;;;;4976412;28;20115;-77
2023/07/27 00:34:12;;;;;;;4.75;1.75;;;;;;;;;;4975452;28;20050;-77
2023/07/27 00:36:38;;;;;;;3.90;1.88;;;;;;;;;;4959118;28;20073;-77
2023/07/27 00:39:03;;;;;;;4.40;1.90;;;;;;;;;;4976420;28;20119;-77
2023/07/27 00:41:29;;;;;;;5.93;1.90;;;;;;;;;;4976204;28;20105;-77
2023/07/27 00:43:55;;;;;;;4.18;1.83;;;;;;;;;;4974246;28;20110;-75
2023/07/27 00:46:20;;;;;;;3.67;1.50;;;;;;;;;;4975063;28;20089;-76
2023/07/27 00:48:46;;;;;;;4.22;1.90;;;;;;;;;;4976248;28;20110;-76
2023/07/27 00:51:11;;;;;;;3.70;1.85;;;;;;;;;;4974976;28;20050;-77
2023/07/27 00:53:37;;;;;;;4.68;1.92;;;;;;;;;;4976137;28;20038;-77
2023/07/27 00:56:02;;;;;;;3.03;1.60;;;;;;;;;;4975997;28;20019;-76
2023/07/27 00:58:28;;;;;;;3.15;1.85;;;;;;;;;;4974604;28;20089;-77
2023/07/27 01:00:54;;;;;;;3.42;2.10;;;;;;;;;;4982859;28;20501;-77
2023/07/27 01:03:19;;;;;;;5.85;1.80;;;;;;;;;;4985385;28;20050;-75
2023/07/27 01:05:48;;;;;;;3.15;1.80;;;;;;;;;;4987072;28;20034;-75
2023/07/27 01:08:14;;;;;;;3.58;1.77;;;;;;;;;;4991228;28;20027;-76
2023/07/27 01:10:47;;;;;;;6.28;1.90;;;;;;;;;;4988601;28;20027;-77
2023/07/27 01:13:18;;;;;;;3.92;1.80;;;;;;;;;;5011908;28;20062;-77
2023/07/27 01:15:48;;;;;;;4.40;2.08;;;;;;;;;;4991010;28;20035;-75
2023/07/27 01:18:22;;;;;;;3.67;2.00;;;;;;;;;;4982323;28;20379;-77
2023/07/27 01:21:04;;;;;;;4.15;1.80;;;;;;;;;;4976297;28;20033;-77
2023/07/27 01:23:41;;;;;;;5.53;1.60;;;;;;;;;;4975732;28;20027;-76
2023/07/27 01:26:18;;;;;;;3.80;1.88;;;;;;;;;;4974961;28;20031;-77
2023/07/27 01:28:49;;;;;;;3.65;1.92;;;;;;;;;;4974974;28;20030;-77
2023/07/27 01:31:18;;;;;;;4.70;1.98;;;;;;;;;;4991359;28;20093;-77
2023/07/27 01:33:46;;;;;;;4.30;1.98;;;;;;;;;;4974767;28;20039;-78
2023/07/27 01:36:13;;;;;;;3.72;1.85;;;;;;;;;;4974454;28;20117;-78
2023/07/27 01:38:41;;;;;;;5.18;1.70;;;;;;;;;;4975086;28;20026;-77
2023/07/27 01:41:08;;;;;;;4.38;1.60;;;;;;;;;;4958915;28;20035;-77
2023/07/27 01:43:34;;;;;;;5.43;2.22;;;;;;;;;;4975115;28;20081;-76
2023/07/27 01:46:00;;;;;;;6.35;2.28;;;;;;;;;;4974038;28;20118;-77
2023/07/27 01:48:26;;;;;;;4.88;2.22;;;;;;;;;;4974085;28;20110;-77
2023/07/27 01:50:53;;;;;;;4.80;2.03;;;;;;;;;;4974001;28;20043;-76
2023/07/27 01:53:19;;;;;;;3.72;2.00;;;;;;;;;;4992185;28;20058;-77
2023/07/27 01:55:45;;;;;;;4.25;1.88;;;;;;;;;;4976098;28;20054;-76
2023/07/27 01:58:14;;;;;;;5.25;1.88;;;;;;;;;;4977246;28;20038;-76
2023/07/27 02:00:41;;;;;;;5.22;2.30;;;;;;;;;;4991281;28;20007;-76
2023/07/27 02:03:07;;;;;;;6.57;2.33;;;;;;;;;;4988017;28;20118;-76
2023/07/27 02:05:34;;;;;;;5.60;2.17;;;;;;;;;;4976783;28;20048;-77
2023/07/27 02:08:00;;;;;;;3.97;2.05;;;;;;;;;;4977586;28;20171;-77
2023/07/27 02:10:27;;;;;;;4.57;2.20;;;;;;;;;;4957660;28;20027;-78
2023/07/27 02:12:57;;;;;;;5.15;2.20;;;;;;;;;;4973571;28;20043;-76
2023/07/27 02:15:26;;;;;;;6.93;1.88;;;;;;;;;;4973653;28;20101;-77
2023/07/27 02:18:04;;;;;;;6.00;2.35;;;;;;;;;;4973759;28;20042;-76
2023/07/27 02:20:32;;;;;;;4.55;2.30;;;;;;;;;;4973775;28;20058;-76
2023/07/27 02:22:59;;;;;;;4.38;2.28;;;;;;;;;;4974995;28;20031;-78
2023/07/27 02:25:24;;;;;;;6.88;2.50;;;;;;;;;;4974256;28;20030;-76
2023/07/27 02:27:50;;;;;;;3.92;2.35;;;;;;;;;;4989657;28;20030;-75
2023/07/27 02:30:16;;;;;;;4.63;2.22;;;;;;;;;;4973322;28;20038;-76
2023/07/27 02:32:41;;;;;;;5.00;2.17;;;;;;;;;;4974237;28;20119;-76
2023/07/27 02:35:07;;;;;;;7.60;2.05;;;;;;;;;;4972874;28;20043;-77
2023/07/27 02:37:33;;;;;;;6.50;2.45;;;;;;;;;;4972961;28;20026;-76
2023/07/27 02:39:58;;;;;;;4.07;2.22;;;;;;;;;;4972925;28;20034;-78
2023/07/27 02:42:24;;;;;;;5.13;2.63;;;;;;;;;;4972165;28;20427;-78
2023/07/27 02:44:49;;;;;;;4.63;2.50;;;;;;;;;;4956755;28;20110;-77
2023/07/27 02:47:15;;;;;;;4.68;2.50;;;;;;;;;;4956213;28;20026;-77
2023/07/27 02:49:40;;;;;;;5.57;2.47;;;;;;;;;;4972576;28;20504;-76
2023/07/27 02:52:06;;;;;;;4.40;2.25;;;;;;;;;;4956486;28;20097;-77
2023/07/27 02:54:32;;;;;;;4.80;2.97;;;;;;;;;;4972591;28;20445;-77
2023/07/27 02:56:58;;;;;;;4.40;2.35;;;;;;;;;;4972590;28;20046;-76
2023/07/27 02:59:30;;;;;;;9.02;2.47;;;;;;;;;;4971757;28;20034;-76
2023/07/27 03:01:56;;;;;;;4.80;2.58;;;;;;;;;;4972497;28;20057;-76
2023/07/27 03:04:26;;;;;;;5.28;2.78;;;;;;;;;;4972397;28;20039;-77
2023/07/27 03:06:52;;;;;;;5.13;2.83;;;;;;;;;;4972369;28;20037;-77
2023/07/27 03:09:20;;;;;;;8.57;2.75;;;;;;;;;;4972310;28;20111;-76
2023/07/27 03:11:45;;;;;;;5.20;2.20;;;;;;;;;;4973523;28;20039;-76
2023/07/27 03:14:11;;;;;;;4.45;2.58;;;;;;;;;;4972995;28;20031;-76
2023/07/27 03:16:36;;;;;;;5.00;2.50;;;;;;;;;;4972390;28;20046;-76
2023/07/27 03:19:02;;;;;;;4.82;2.47;;;;;;;;;;4972285;28;20117;-76
2023/07/27 03:21:27;;;;;;;5.82;2.80;;;;;;;;;;4973884;28;20027;-76
2023/07/27 03:23:53;;;;;;;4.85;2.60;;;;;;;;;;4972715;28;20035;-76
2023/07/27 03:26:19;;;;;;;4.85;2.80;;;;;;;;;;4972141;28;20058;-75
2023/07/27 03:28:45;;;;;;;6.38;2.13;;;;;;;;;;4956462;28;20482;-77
2023/07/27 03:31:20;;;;;;;4.20;2.58;;;;;;;;;;4973099;28;20035;-78
2023/07/27 03:33:46;;;;;;;4.85;2.47;;;;;;;;;;4972652;28;20074;-76
2023/07/27 03:36:13;;;;;;;5.93;2.47;;;;;;;;;;4973192;28;20030;-76
2023/07/27 03:38:38;;;;;;;7.95;3.03;;;;;;;;;;4973830;28;20031;-77
2023/07/27 03:41:04;;;;;;;5.63;2.20;;;;;;;;;;4959686;28;20077;-77
2023/07/27 03:43:33;;;;;;;4.68;2.38;;;;;;;;;;4978794;28;20019;-75
2023/07/27 03:45:58;;;;;;;8.52;2.60;;;;;;;;;;4964758;28;20031;-76
2023/07/27 03:48:25;;;;;;;6.20;2.80;;;;;;;;;;4967284;28;20062;-76
2023/07/27 03:50:51;;;;;;;7.15;3.10;;;;;;;;;;4987615;28;20114;-76
2023/07/27 03:53:17;;;;;;;5.82;2.42;;;;;;;;;;4989253;28;20066;-75
2023/07/27 03:55:43;;;;;;;5.05;2.47;;;;;;;;;;4995591;28;20054;-76
2023/07/27 03:58:08;;;;;;;6.18;3.42;;;;;;;;;;4977420;28;20039;-76
2023/07/27 04:00:34;;;;;;;13.60;2.90;;;;;;;;;;4994024;28;20035;-77
2023/07/27 04:02:59;;;;;;;5.28;2.50;;;;;;;;;;4977920;28;20041;-76
2023/07/27 04:05:25;;;;;;;5.55;2.72;;;;;;;;;;4960861;28;20121;-76
2023/07/27 04:07:52;;;;;;;6.13;2.50;;;;;;;;;;4976886;28;20434;-77
2023/07/27 04:10:18;;;;;;;6.25;2.45;;;;;;;;;;4976283;28;20031;-78
2023/07/27 04:12:43;;;;;;;3.85;2.20;;;;;;;;;;4977759;28;20027;-77
2023/07/27 04:15:09;;;;;;;5.68;2.28;;;;;;;;;;4976263;28;20046;-75
2023/07/27 04:17:35;;;;;;;3.22;1.90;;;;;;;;;;4977146;28;20023;-77
2023/07/27 04:20:00;;;;;;;3.95;2.17;;;;;;;;;;4960479;28;20057;-77
2023/07/27 04:22:26;;;;;;;4.57;2.42;;;;;;;;;;4977955;28;20026;-77
2023/07/27 04:24:51;;;;;;;7.32;2.30;;;;;;;;;;4960849;28;20404;-76
2023/07/27 04:27:17;;;;;;;7.10;2.50;;;;;;;;;;4978370;28;20081;-76
2023/07/27 04:29:42;;;;;;;5.32;2.45;;;;;;;;;;4979090;28;20050;-76
2023/07/27 04:32:08;;;;;;;4.72;2.38;;;;;;;;;;4977705;28;20035;-77
2023/07/27 04:34:34;;;;;;;6.85;2.47;;;;;;;;;;4944466;28;20039;-77
2023/07/27 04:36:59;;;;;;;5.95;2.85;;;;;;;;;;4976631;28;20027;-76
2023/07/27 04:39:25;;;;;;;5.93;3.05;;;;;;;;;;4987954;28;20031;-75
2023/07/27 04:41:51;;;;;;;4.60;2.25;;;;;;;;;;4940127;29;20383;-77
2023/07/27 04:44:16;;;;;;;7.95;3.40;;;;;;;;;;4957387;29;20031;-77
2023/07/27 04:46:42;;;;;;;7.88;5.18;;;;;;;;;;4957155;29;20368;-77
2023/07/27 04:49:07;;;;;;;8.65;5.97;;;;;;;;;;4957202;29;20422;-77
2023/07/27 04:51:33;;;;;;;9.90;5.95;;;;;;;;;;4957136;29;20031;-77
2023/07/27 04:53:59;;;;;;;9.10;3.80;;;;;;;;;;4956112;28;20035;-78
2023/07/27 04:56:25;;;;;;;6.97;3.15;;;;;;;;;;4955845;28;20439;-76
2023/07/27 04:58:50;;;;;;;7.78;4.03;;;;;;;;;;4956548;28;20402;-77
2023/07/27 05:01:16;;;;;;;5.32;2.55;;;;;;;;;;4956218;29;20402;-77
2023/07/27 05:03:41;;;;;;;6.18;2.50;;;;;;;;;;4972125;28;20423;-77
2023/07/27 05:06:07;;;;;;;11.50;3.15;;;;;;;;;;4955731;29;20035;-78
2023/07/27 05:08:33;;;;;;;5.30;2.65;;;;;;;;;;4956508;28;20547;-75
2023/07/27 05:10:58;;;;;;;4.55;2.53;;;;;;;;;;4959011;28;20122;-76
2023/07/27 05:13:24;;;;;;;4.20;2.05;;;;;;;;;;4976164;28;20027;-78
2023/07/27 05:15:49;;;;;;;5.93;2.28;;;;;;;;;;4991191;28;20081;-77
2023/07/27 05:18:15;;;;;;;4.80;2.70;;;;;;;;;;4958891;28;20090;-77
2023/07/27 05:20:40;;;;;;;5.90;2.63;;;;;;;;;;4976204;28;20019;-77
2023/07/27 05:23:06;;;;;;;5.00;2.38;;;;;;;;;;4975678;28;20125;-76
2023/07/27 05:25:31;;;;;;;6.47;3.05;;;;;;;;;;4975551;28;20406;-78
2023/07/27 05:27:57;;;;;;;4.88;2.33;;;;;;;;;;4975511;28;20105;-77
2023/07/27 05:30:22;;;;;;;5.28;2.30;;;;;;;;;;4975613;28;20054;-76
2023/07/27 05:32:48;;;;;;;9.98;2.35;;;;;;;;;;4990232;28;20050;-78
2023/07/27 05:35:13;;;;;;;6.55;2.90;;;;;;;;;;4974189;28;20026;-76
2023/07/27 05:37:45;;;;;;;7.60;2.60;;;;;;;;;;4975534;28;20023;-76
2023/07/27 05:40:11;;;;;;;7.28;2.33;;;;;;;;;;4990435;28;20026;-77
2023/07/27 05:42:37;;;;;;;6.20;2.50;;;;;;;;;;4974232;28;20045;-78
2023/07/27 05:45:03;;;;;;;3.67;2.10;;;;;;;;;;4974252;28;20035;-77
2023/07/27 05:47:28;;;;;;;5.72;2.85;;;;;;;;;;4975487;28;20080;-76
2023/07/27 05:49:58;;;;;;;4.10;2.08;;;;;;;;;;4975563;28;20394;-77
2023/07/27 05:52:24;;;;;;;7.88;2.20;;;;;;;;;;4974207;28;20031;-77
2023/07/27 05:54:49;;;;;;;5.78;1.90;;;;;;;;;;4974857;28;20497;-77
2023/07/27 05:57:15;;;;;;;4.78;2.08;;;;;;;;;;4975000;28;20031;-76
2023/07/27 05:59:40;;;;;;;4.72;2.10;;;;;;;;;;4957898;28;20069;-76
2023/07/27 06:02:06;;;;;;;5.97;2.22;;;;;;;;;;4989700;28;20071;-76
2023/07/27 06:04:32;;;;;;;5.07;2.33;;;;;;;;;;4974871;28;20027;-76
2023/07/27 06:06:58;;;;;;;6.43;3.28;;;;;;;;;;4973457;28;20516;-78
2023/07/27 06:09:24;;;;;;;6.35;2.40;;;;;;;;;;4973769;28;20449;-77
2023/07/27 06:11:49;;;;;;;5.82;2.30;;;;;;;;;;4990082;28;20062;-77
2023/07/27 06:14:15;;;;;;;5.65;2.25;;;;;;;;;;4976321;28;20050;-77
2023/07/27 06:16:41;;;;;;;8.27;2.08;;;;;;;;;;4976011;28;20154;-77
2023/07/27 06:19:06;;;;;;;5.07;2.15;;;;;;;;;;4975790;28;20030;-77
2023/07/27 06:21:32;;;;;;;5.55;2.20;;;;;;;;;;4991203;28;20061;-78
2023/07/27 06:23:58;;;;;;;4.40;2.22;;;;;;;;;;4975503;28;20129;-78
2023/07/27 06:26:26;;;;;;;6.82;2.15;;;;;;;;;;4978006;28;20031;-77
2023/07/27 06:28:52;;;;;;;4.82;2.25;;;;;;;;;;4968749;28;20084;-76
2023/07/27 06:31:18;;;;;;;5.50;2.33;;;;;;;;;;4988845;28;20066;-76
2023/07/27 06:33:43;;;;;;;5.78;1.98;;;;;;;;;;4989080;28;20548;-77
2023/07/27 06:36:11;;;;;;;4.85;2.63;;;;;;;;;;4993437;28;20082;-77
2023/07/27 06:38:38;;;;;;;6.18;2.10;;;;;;;;;;4994754;28;20021;-77
2023/07/27 06:41:04;;;;;;;4.28;2.50;;;;;;;;;;4976621;28;20023;-75
2023/07/27 06:43:30;;;;;;;4.80;2.10;;;;;;;;;;4991100;28;20239;-78
2023/07/27 06:45:59;;;;;;;4.68;2.13;;;;;;;;;;5007185;28;20035;-75
2023/07/27 06:48:25;;;;;;;5.43;2.22;;;;;;;;;;4989117;28;20031;-76
2023/07/27 06:50:51;;;;;;;3.80;2.13;;;;;;;;;;4981725;28;20413;-76
2023/07/27 06:53:17;;;;;;;5.97;2.50;;;;;;;;;;4979506;28;20045;-76
2023/07/27 06:55:42;;;;;;;5.13;2.50;;;;;;;;;;4978715;28;20081;-77
2023/07/27 06:58:08;;;;;;;5.95;2.20;;;;;;;;;;4977199;28;20371;-75
2023/07/27 07:00:34;;;;;;;5.68;2.10;;;;;;;;;;4975721;28;20496;-77
2023/07/27 07:02:59;;;;;;;5.05;2.50;;;;;;;;;;4974588;28;20030;-75
2023/07/27 07:05:25;;;;;;;4.63;2.28;;;;;;;;;;4974487;28;20397;-76
2023/07/27 07:07:51;;;;;;;6.32;2.20;;;;;;;;;;4957529;28;20046;-75
2023/07/27 07:10:18;;;;;;;8.05;2.38;;;;;;;;;;4973299;28;20418;-76
2023/07/27 07:12:45;;;;;;;5.68;2.10;;;;;;;;;;4972528;28;20043;-76
2023/07/27 07:15:10;;;;;;;4.68;2.28;;;;;;;;;;4957030;28;20548;-77
2023/07/27 07:17:36;;;;;;;10.35;2.38;;;;;;;;;;4989199;28;20023;-76
2023/07/27 07:20:05;;;;;;;8.82;2.53;;;;;;;;;;4973769;28;20162;-76
2023/07/27 07:22:31;;;;;;;5.35;2.05;;;;;;;;;;4988819;28;20042;-75
2023/07/27 07:24:57;;;;;;;5.45;2.20;;;;;;;;;;4972389;28;20034;-76
2023/07/27 07:27:22;;;;;;;7.35;2.22;;;;;;;;;;4987936;28;20409;-76
2023/07/27 07:29:48;;;;;;;7.00;2.40;;;;;;;;;;4972079;28;20031;-75
2023/07/27 07:32:13;;;;;;;6.00;2.13;;;;;;;;;;4973214;28;20118;-75
2023/07/27 07:34:39;;;;;;;6.60;2.08;;;;;;;;;;4972503;28;20089;-76
2023/07/27 07:37:04;;;;;;;7.63;2.50;;;;;;;;;;4973118;28;20514;-77
2023/07/27 07:39:30;;;;;;;5.38;2.22;;;;;;;;;;4972328;28;20493;-78
2023/07/27 07:41:56;;;;;;;5.40;2.08;;;;;;;;;;4973664;28;20468;-76
2023/07/27 07:44:22;;;;;;;4.85;2.17;;;;;;;;;;4971271;28;20039;-76
2023/07/27 07:46:48;;;;;;;4.85;2.45;;;;;;;;;;4988466;28;20049;-77
2023/07/27 07:49:13;;;;;;;5.50;2.38;;;;;;;;;;4971558;28;20062;-78
2023/07/27 07:51:39;;;;;;;7.38;2.72;;;;;;;;;;4972130;28;20435;-76
2023/07/27 07:54:07;;;;;;;6.25;2.60;;;;;;;;;;4973030;28;20514;-76
2023/07/27 07:56:33;;;;;;;9.15;2.70;;;;;;;;;;4972520;28;20035;-76
2023/07/27 07:58:58;;;;;;;8.13;2.45;;;;;;;;;;4973157;28;20023;-76
2023/07/27 08:01:24;;;;;;;4.85;2.25;;;;;;;;;;4958438;28;20434;-78
2023/07/27 08:03:49;;;;;;;5.05;2.33;;;;;;;;;;4968966;28;20167;-78
2023/07/27 08:06:15;;;;;;;6.43;2.17;;;;;;;;;;4968025;28;20027;-77
2023/07/27 08:08:41;;;;;;;6.00;2.60;;;;;;;;;;4953839;28;20035;-77
2023/07/27 08:11:06;;;;;;;8.65;2.40;;;;;;;;;;4953335;28;20027;-77
2023/07/27 08:13:32;;;;;;;6.47;2.33;;;;;;;;;;4968573;28;20031;-78
2023/07/27 08:15:57;;;;;;;4.25;2.20;;;;;;;;;;4953357;28;20029;-78
2023/07/27 08:18:25;;;;;;;4.33;2.20;;;;;;;;;;4962442;28;20030;-76
2023/07/27 08:21:01;;;;;;;4.28;2.15;;;;;;;;;;4971555;28;20363;-76
2023/07/27 08:23:28;;;;;;;6.88;2.00;;;;;;;;;;4971614;28;20068;-77
2023/07/27 08:25:54;;;;;;;6.60;2.05;;;;;;;;;;4972389;28;20035;-76
2023/07/27 08:28:20;;;;;;;4.60;1.90;;;;;;;;;;4971346;28;20119;-77
2023/07/27 08:30:46;;;;;;;7.32;2.25;;;;;;;;;;4972517;28;20109;-79
2023/07/27 08:33:12;;;;;;;5.53;2.13;;;;;;;;;;4971797;28;20031;-79
2023/07/27 08:35:38;;;;;;;7.22;2.30;;;;;;;;;;4972340;28;20026;-76
2023/07/27 08:38:04;;;;;;;5.43;2.15;;;;;;;;;;4972417;28;20049;-78
2023/07/27 08:40:30;;;;;;;6.38;1.90;;;;;;;;;;4972215;28;20031;-77
2023/07/27 08:42:55;;;;;;;5.03;2.08;;;;;;;;;;4971211;28;20031;-77
2023/07/27 08:45:21;;;;;;;3.60;1.67;;;;;;;;;;4956620;28;20046;-77
2023/07/27 08:47:52;;;;;;;4.13;2.00;;;;;;;;;;4975163;28;20154;-78
2023/07/27 08:50:19;;;;;;;8.27;1.92;;;;;;;;;;4976200;28;20091;-78
2023/07/27 08:52:45;;;;;;;3.90;1.92;;;;;;;;;;4960858;28;20035;-78
2023/07/27 08:55:11;;;;;;;7.00;2.22;;;;;;;;;;4959611;28;20398;-78
2023/07/27 08:57:36;;;;;;;7.07;2.13;;;;;;;;;;4974667;28;20074;-77
2023/07/27 09:00:02;;;;;;;4.13;1.95;;;;;;;;;;4973884;28;20031;-76
2023/07/27 09:02:30;;;;;;;4.60;2.20;;;;;;;;;;4975172;28;20375;-77
2023/07/27 09:04:56;;;;;;;4.90;1.92;;;;;;;;;;4958508;28;20046;-77
2023/07/27 09:07:21;;;;;;;3.30;1.85;;;;;;;;;;4975652;28;20035;-77
2023/07/27 09:09:53;;;;;;;4.30;2.03;;;;;;;;;;4959357;28;20110;-78
2023/07/27 09:12:21;;;;;;;4.20;2.50;;;;;;;;;;4961655;28;20131;-79
2023/07/27 09:14:47;;;;;;;6.47;3.28;;;;;;;;;;4947244;28;20405;-79
2023/07/27 09:17:13;;;;;;;5.57;2.13;;;;;;;;;;4979140;28;20039;-77
2023/07/27 09:19:40;;;;;;;4.63;1.85;;;;;;;;;;4985693;28;20334;-80
2023/07/27 09:22:06;;;;;;;4.50;2.22;;;;;;;;;;4988714;28;20050;-78
2023/07/27 09:24:32;;;;;;;8.80;1.95;;;;;;;;;;4995557;28;20027;-79
2023/07/27 09:26:58;;;;;;;3.97;2.00;;;;;;;;;;4997242;28;20066;-82
2023/07/27 09:29:24;;;;;;;3.58;1.95;;;;;;;;;;4999328;28;20035;-79
2023/07/27 09:31:50;;;;;;;8.75;2.25;;;;;;;;;;4982399;28;20031;-79
2023/07/27 09:34:17;;;;;;;5.60;2.25;;;;;;;;;;4983158;28;20034;-80
2023/07/27 09:36:42;;;;;;;5.50;1.95;;;;;;;;;;4976925;28;20023;-79
2023/07/27 09:39:09;;;;;;;6.25;2.22;;;;;;;;;;4977652;28;20382;-78
2023/07/27 09:41:35;;;;;;;4.80;2.40;;;;;;;;;;4986019;28;20042;-79
2023/07/27 09:44:02;;;;;;;4.40;2.60;;;;;;;;;;4988667;28;20030;-79
2023/07/27 09:46:29;;;;;;;4.88;1.90;;;;;;;;;;4993983;28;20397;-78
2023/07/27 09:48:56;;;;;;;5.55;2.25;;;;;;;;;;4983624;28;20402;-79
2023/07/27 09:51:22;;;;;;;5.10;2.15;;;;;;;;;;4958128;28;20046;-77
2023/07/27 09:53:51;;;;;;;6.72;1.90;;;;;;;;;;4963653;28;20485;-78
2023/07/27 09:56:17;;;;;;;6.05;2.10;;;;;;;;;;4985994;28;20045;-79
2023/07/27 09:58:46;;;;;;;6.32;2.00;;;;;;;;;;4979659;28;20481;-78
2023/07/27 10:01:12;;;;;;;;;;;;;;;;;;4970777;28;20027;-79
2023/07/27 10:03:37;;;;;;;4.88;2.13;;;;;;;;;;4961894;28;19914;-78
2023/07/27 10:06:03;;;;;;;6.85;2.30;;;;;;;;;;4976554;28;20070;-77
2023/07/27 10:08:29;;;;;;;3.88;1.92;;;;;;;;;;4980468;28;20038;-79
2023/07/27 10:10:55;;;;;;;4.72;1.85;;;;;;;;;;4973949;28;20031;-79
2023/07/27 10:13:24;;;;;;;4.78;2.25;;;;;;;;;;4990205;28;20031;-79
2023/07/27 10:15:50;;;;;;;4.90;2.17;;;;;;;;;;4949481;28;20022;-78
2023/07/27 10:18:20;;;;;;;3.25;2.03;;;;;;;;;;4981242;28;20027;-79
2023/07/27 10:20:45;;;;;;;8.32;2.53;;;;;;;;;;4972607;28;20026;-79
2023/07/27 10:23:12;;;;;;;6.38;2.22;;;;;;;;;;4975818;28;20041;-79
2023/07/27 10:26:04;;;;;;;4.80;2.20;;;;;;;;;;4970423;28;20125;-77
2023/07/27 10:28:40;;;;;;;5.10;2.17;;;;;;;;;;4983473;28;20473;-76
2023/07/27 10:31:19;;;;;;;6.40;1.90;;;;;;;;;;4977813;28;20509;-79
2023/07/27 10:33:48;;;;;;;4.22;2.15;;;;;;;;;;4953961;29;20038;-80
2023/07/27 10:36:14;;;;;;;6.95;2.60;;;;;;;;;;4976210;28;20509;-82
2023/07/27 10:38:40;;;;;;;5.47;2.50;;;;;;;;;;4978334;28;20026;-83
2023/07/27 10:41:13;;;;;;;4.75;2.42;;;;;;;;;;4991753;28;20026;-82
2023/07/27 10:43:58;;;;;;;6.47;2.70;;;;;;;;;;4986459;28;20019;-84
2023/07/27 10:46:24;;;;;;;4.55;2.40;;;;;;;;;;4985268;28;20092;-82
2023/07/27 10:48:56;;;;;;;8.93;2.35;;;;;;;;;;4976681;28;20486;-83
2023/07/27 10:51:22;;;;;;;6.07;2.20;;;;;;;;;;4978530;28;20093;-82
2023/07/27 10:53:49;;;;;;;5.20;2.40;;;;;;;;;;4985516;28;20022;-85
2023/07/27 10:56:16;;;;;;;5.22;2.30;;;;;;;;;;4968507;28;20047;-85
2023/07/27 10:58:44;;;;;;;3.95;2.35;;;;;;;;;;4978964;28;20078;-85
2023/07/27 11:01:10;;;;;;;9.20;2.57;;;;;;;;;;4988316;28;20034;-86
2023/07/27 11:03:36;;;;;;;7.75;3.30;;;;;;;;;;4979095;28;20083;-86
2023/07/27 11:06:10;;;;;;;6.05;2.30;;;;;;;;;;4986240;28;20462;-85
2023/07/27 11:08:40;;;;;;;5.85;2.08;;;;;;;;;;4981784;28;20520;-88
2023/07/27 11:11:13;;;;;;;8.65;2.40;;;;;;;;;;5006194;28;20043;-87
2023/07/27 11:13:38;;;;;;;5.00;2.20;;;;;;;;;;4970064;28;20030;-85
2023/07/27 11:16:04;;;;;;;5.22;2.70;;;;;;;;;;4966738;28;20041;-85
2023/07/27 11:18:29;;;;;;;8.05;2.38;;;;;;;;;;4947174;28;20049;-85
2023/07/27 11:20:55;;;;;;;4.95;2.33;;;;;;;;;;4939283;28;20034;-76
2023/07/27 11:23:23;;;;;;;7.07;2.65;;;;;;;;;;4981252;28;20041;-76
2023/07/27 11:25:58;;;;;;;4.82;2.63;;;;;;;;;;4963175;28;20034;-75
2023/07/27 11:28:25;;;;;;;5.47;2.50;;;;;;;;;;4967256;28;20080;-74
2023/07/27 11:30:52;;;;;;;4.50;2.63;;;;;;;;;;4981365;28;20053;-81
2023/07/27 11:33:20;;;;;;;7.45;3.40;;;;;;;;;;4987529;28;20031;-76
2023/07/27 11:35:46;;;;;;;7.10;3.22;;;;;;;;;;4975044;28;20478;-77
2023/07/27 11:38:11;;;;;;;6.78;3.70;;;;;;;;;;4982192;28;20030;-77
2023/07/27 11:40:37;;;;;;;5.43;3.78;;;;;;;;;;4983670;28;20058;-77
2023/07/27 11:43:03;;;;;;;6.78;3.65;;;;;;;;;;4968299;28;20045;-76
2023/07/27 11:45:30;;;;;;;4.75;2.95;;;;;;;;;;4975973;28;20038;-76
2023/07/27 11:47:56;;;;;;;4.93;2.80;;;;;;;;;;4960529;28;20031;-76
2023/07/27 11:50:21;;;;;;;6.03;3.53;;;;;;;;;;4971187;28;20039;-75
2023/07/27 11:52:48;;;;;;;6.38;3.30;;;;;;;;;;4978180;28;20035;-77
2023/07/27 11:55:15;;;;;;;9.65;3.80;;;;;;;;;;4989078;28;20035;-77
2023/07/27 11:57:40;;;;;;;5.30;3.22;;;;;;;;;;4962893;28;20042;-76
2023/07/27 12:00:12;;;;;;;9.32;3.45;;;;;;;;;;4994552;28;20482;-74
2023/07/27 12:02:39;;;;;;;6.82;3.47;;;;;;;;;;4989075;28;20034;-75
2023/07/27 12:05:14;;;;;;;8.07;3.35;;;;;;;;;;4971101;28;20091;-75
2023/07/27 12:07:40;;;;;;;6.22;3.08;;;;;;;;;;5001716;28;20548;-76
2023/07/27 12:10:15;;;;;;;8.45;3.55;;;;;;;;;;4957193;28;20561;-75
2023/07/27 12:12:56;;;;;;;6.68;3.20;;;;;;;;;;4997213;28;20526;-76
2023/07/27 12:15:23;;;;;;;6.25;3.50;;;;;;;;;;4972280;28;20045;-76
2023/07/27 12:17:56;;;;;;;6.10;3.47;;;;;;;;;;4977415;28;20030;-74
2023/07/27 12:20:22;;;;;;;9.25;4.50;;;;;;;;;;4986939;28;20080;-76
2023/07/27 12:22:47;;;;;;;8.10;3.67;;;;;;;;;;4984771;28;20042;-76
2023/07/27 12:25:13;;;;;;;7.15;3.20;;;;;;;;;;4990640;28;20030;-75
2023/07/27 12:28:10;;;;;;;7.20;3.13;;;;;;;;;;4995371;28;20037;-77
2023/07/27 12:30:35;;;;;;;5.53;3.58;;;;;;;;;;4987348;28;20030;-75
2023/07/27 12:33:04;;;;;;;7.00;3.13;;;;;;;;;;4975485;28;20061;-76
2023/07/27 12:35:29;;;;;;;;;;;;;;;;;;4977620;28;20023;-76
2023/07/27 12:37:55;;;;;;;6.40;3.00;;;;;;;;;;4991171;28;19917;-76
2023/07/27 12:40:24;;;;;;;13.60;5.60;;;;;;;;;;4984255;28;20490;-76
2023/07/27 12:42:51;;;;;;;10.68;4.38;;;;;;;;;;4952311;28;20031;-76
2023/07/27 12:45:19;;;;;;;10.05;3.65;;;;;;;;;;4989839;28;20468;-77
2023/07/27 12:47:45;;;;;;;5.70;3.20;;;;;;;;;;4978570;28;20035;-76
2023/07/27 12:50:11;;;;;;;6.38;3.22;;;;;;;;;;4972733;28;20401;-76
2023/07/27 12:52:38;;;;;;;6.60;3.15;;;;;;;;;;4985379;28;20497;-76
2023/07/27 12:55:03;;;;;;;5.13;3.40;;;;;;;;;;4982848;28;20054;-76
2023/07/27 12:57:29;;;;;;;7.78;3.67;;;;;;;;;;4976245;28;20058;-75
2023/07/27 12:59:54;;;;;;;9.02;3.38;;;;;;;;;;4963672;28;20482;-76
2023/07/27 13:02:20;;;;;;;5.97;3.53;;;;;;;;;;4988907;28;20458;-76
2023/07/27 13:04:45;;;;;;;11.07;3.95;;;;;;;;;;4984769;28;20066;-77
2023/07/27 13:07:13;;;;;;;9.48;3.70;;;;;;;;;;4981549;28;20105;-76
2023/07/27 13:09:41;;;;;;;6.03;3.53;;;;;;;;;;4991666;28;20031;-76
2023/07/27 13:12:07;;;;;;;6.22;3.55;;;;;;;;;;4980589;28;20122;-77
2023/07/27 13:14:33;;;;;;;8.63;3.80;;;;;;;;;;4993157;28;20027;-77
2023/07/27 13:16:59;;;;;;;8.38;3.83;;;;;;;;;;4982067;28;20383;-75
2023/07/27 13:19:24;;;;;;;7.00;4.15;;;;;;;;;;4990171;28;20027;-75
2023/07/27 13:21:50;;;;;;;6.90;3.72;;;;;;;;;;4958128;28;20121;-76
2023/07/27 13:24:15;;;;;;;8.35;3.60;;;;;;;;;;4981438;28;20030;-75
2023/07/27 13:26:44;;;;;;;7.65;3.63;;;;;;;;;;4984699;28;20109;-76
2023/07/27 13:29:11;;;;;;;6.88;3.97;;;;;;;;;;4971748;28;20042;-77
2023/07/27 13:31:37;;;;;;;5.85;3.60;;;;;;;;;;4978202;28;20121;-76
2023/07/27 13:34:03;;;;;;;7.45;3.00;;;;;;;;;;4987248;28;20053;-76
2023/07/27 13:36:28;;;;;;;6.28;3.35;;;;;;;;;;4986407;28;20022;-76
2023/07/27 13:38:56;;;;;;;4.70;3.17;;;;;;;;;;4985894;28;20070;-76
2023/07/27 13:41:22;;;;;;;6.88;3.63;;;;;;;;;;4979426;28;20058;-76
2023/07/27 13:43:47;;;;;;;6.43;2.90;;;;;;;;;;4973619;28;20596;-76
2023/07/27 13:46:13;;;;;;;5.68;3.55;;;;;;;;;;4980791;28;20022;-76
2023/07/27 13:48:38;;;;;;;8.05;3.63;;;;;;;;;;4983929;28;20105;-75
2023/07/27 13:51:04;;;;;;;10.38;4.43;;;;;;;;;;4986380;28;20102;-77
2023/07/27 13:53:30;;;;;;;6.25;3.70;;;;;;;;;;4978178;28;20035;-76
2023/07/27 13:55:55;;;;;;;6.55;3.72;;;;;;;;;;4974737;28;20121;-77
2023/07/27 13:58:21;;;;;;;7.95;4.13;;;;;;;;;;4987273;28;20031;-77
2023/07/27 14:00:46;;;;;;;10.80;4.32;;;;;;;;;;4984867;28;20030;-75
2023/07/27 14:03:15;;;;;;;5.90;3.10;;;;;;;;;;4978874;28;20039;-74
2023/07/27 14:05:40;;;;;;;8.18;3.50;;;;;;;;;;4989411;28;20347;-75
2023/07/27 14:08:06;;;;;;;6.65;3.60;;;;;;;;;;4979385;28;20077;-77
2023/07/27 14:10:34;;;;;;;8.48;4.47;;;;;;;;;;4984429;28;20037;-76
2023/07/27 14:12:59;;;;;;;6.80;4.25;;;;;;;;;;4968970;28;20113;-75
2023/07/27 14:15:25;;;;;;;7.88;4.15;;;;;;;;;;4978032;28;20057;-77
2023/07/27 14:17:50;;;;;;;7.97;4.65;;;;;;;;;;4979148;28;20031;-77
2023/07/27 14:20:16;;;;;;;8.20;4.55;;;;;;;;;;4960222;28;20042;-76
2023/07/27 14:22:42;;;;;;;7.38;4.53;;;;;;;;;;4972069;28;20559;-76
2023/07/27 14:25:08;;;;;;;7.70;4.20;;;;;;;;;;4995961;28;20033;-76
2023/07/27 14:27:33;;;;;;;11.20;5.35;;;;;;;;;;4977486;28;20402;-74
2023/07/27 14:30:01;;;;;;;6.60;4.63;;;;;;;;;;4989566;28;20102;-76
2023/07/27 14:32:27;;;;;;;8.48;4.97;;;;;;;;;;4982944;28;20054;-75
2023/07/27 14:34:52;;;;;;;8.80;4.90;;;;;;;;;;4969985;28;20437;-76
2023/07/27 14:37:18;;;;;;;8.55;4.22;;;;;;;;;;4985894;28;20037;-76
2023/07/27 14:39:43;;;;;;;8.40;4.50;;;;;;;;;;4982124;28;20086;-76